sensor_id;sensor_type;location;lat;lon;timestamp;P1;durP1;ratioP1;P2;durP2;ratioP2
74900;SDS011;63461;51.416;6.758;2022-12-07T00:00:39;24.47;;;11.13;;
74900;SDS011;63461;51.416;6.758;2022-12-07T00:03:04;20.33;;;11.60;;
74900;SDS011;63461;51.416;6.758;2022-12-07T00:05:30;21.93;;;11.63;;
74900;SDS011;63461;51.416;6.758;2022-12-07T00:07:56;21.73;;;11.43;;
74900;SDS011;63461;51.416;6.758;2022-12-07T00:10:22;21.33;;;11.80;;
74900;SDS011;63461;51.416;6.758;2022-12-07T00:12:48;21.93;;;11.33;;
74900;SDS011;63461;51.416;6.758;2022-12-07T00:15:15;22.10;;;11.80;;
74900;SDS011;63461;51.416;6.758;2022-12-07T00:17:41;24.03;;;11.53;;
74900;SDS011;63461;51.416;6.758;2022-12-07T00:20:06;23.30;;;11.30;;
74900;SDS011;63461;51.416;6.758;2022-12-07T00:22:32;22.87;;;12.47;;
74900;SDS011;63461;51.416;6.758;2022-12-07T00:24:58;20.27;;;11.10;;
74900;SDS011;63461;51.416;6.758;2022-12-07T00:27:24;20.40;;;11.87;;
74900;SDS011;63461;51.416;6.758;2022-12-07T00:29:50;25.07;;;12.00;;
74900;SDS011;63461;51.416;6.758;2022-12-07T00:32:16;22.77;;;12.17;;
74900;SDS011;63461;51.416;6.758;2022-12-07T00:34:41;22.00;;;12.37;;
74900;SDS011;63461;51.416;6.758;2022-12-07T00:37:07;22.07;;;11.43;;
74900;SDS011;63461;51.416;6.758;2022-12-07T00:39:33;25.53;;;12.53;;
74900;SDS011;63461;51.416;6.758;2022-12-07T00:41:58;26.17;;;12.67;;
74900;SDS011;63461;51.416;6.758;2022-12-07T00:44:24;23.23;;;12.33;;
74900;SDS011;63461;51.416;6.758;2022-12-07T00:46:50;26.33;;;13.43;;
74900;SDS011;63461;51.416;6.758;2022-12-07T00:49:15;26.80;;;13.10;;
74900;SDS011;63461;51.416;6.758;2022-12-07T00:51:41;27.00;;;13.07;;
74900;SDS011;63461;51.416;6.758;2022-12-07T00:54:07;29.50;;;13.70;;
74900;SDS011;63461;51.416;6.758;2022-12-07T00:56:33;27.07;;;13.60;;
74900;SDS011;63461;51.416;6.758;2022-12-07T00:59:00;25.33;;;14.07;;
74900;SDS011;63461;51.416;6.758;2022-12-07T01:01:29;27.70;;;12.50;;
74900;SDS011;63461;51.416;6.758;2022-12-07T01:03:57;23.80;;;12.60;;
74900;SDS011;63461;51.416;6.758;2022-12-07T01:06:23;25.03;;;13.20;;
74900;SDS011;63461;51.416;6.758;2022-12-07T01:08:50;26.47;;;13.10;;
74900;SDS011;63461;51.416;6.758;2022-12-07T01:11:17;25.57;;;13.20;;
74900;SDS011;63461;51.416;6.758;2022-12-07T01:13:45;27.03;;;13.77;;
74900;SDS011;63461;51.416;6.758;2022-12-07T01:16:13;25.03;;;13.33;;
74900;SDS011;63461;51.416;6.758;2022-12-07T01:18:40;23.60;;;13.10;;
74900;SDS011;63461;51.416;6.758;2022-12-07T01:21:11;25.23;;;13.13;;
74900;SDS011;63461;51.416;6.758;2022-12-07T01:23:39;26.30;;;14.03;;
74900;SDS011;63461;51.416;6.758;2022-12-07T01:26:06;25.43;;;13.73;;
74900;SDS011;63461;51.416;6.758;2022-12-07T01:28:34;28.27;;;14.07;;
74900;SDS011;63461;51.416;6.758;2022-12-07T01:31:01;26.00;;;12.90;;
74900;SDS011;63461;51.416;6.758;2022-12-07T01:33:30;23.53;;;13.07;;
74900;SDS011;63461;51.416;6.758;2022-12-07T01:36:04;28.70;;;14.77;;
74900;SDS011;63461;51.416;6.758;2022-12-07T01:38:33;28.50;;;14.03;;
74900;SDS011;63461;51.416;6.758;2022-12-07T01:41:00;24.77;;;13.33;;
74900;SDS011;63461;51.416;6.758;2022-12-07T01:43:28;25.87;;;13.70;;
74900;SDS011;63461;51.416;6.758;2022-12-07T01:45:55;29.13;;;14.30;;
74900;SDS011;63461;51.416;6.758;2022-12-07T01:48:26;27.30;;;14.20;;
74900;SDS011;63461;51.416;6.758;2022-12-07T01:50:55;28.17;;;14.37;;
74900;SDS011;63461;51.416;6.758;2022-12-07T01:53:26;27.43;;;13.67;;
74900;SDS011;63461;51.416;6.758;2022-12-07T01:55:55;27.93;;;14.17;;
74900;SDS011;63461;51.416;6.758;2022-12-07T01:58:23;25.23;;;12.63;;
74900;SDS011;63461;51.416;6.758;2022-12-07T02:00:50;26.20;;;14.00;;
74900;SDS011;63461;51.416;6.758;2022-12-07T02:03:20;27.33;;;13.90;;
74900;SDS011;63461;51.416;6.758;2022-12-07T02:05:51;22.23;;;12.57;;
74900;SDS011;63461;51.416;6.758;2022-12-07T02:08:18;23.97;;;13.13;;
74900;SDS011;63461;51.416;6.758;2022-12-07T02:10:45;28.10;;;13.27;;
74900;SDS011;63461;51.416;6.758;2022-12-07T02:15:55;25.47;;;13.67;;
74900;SDS011;63461;51.416;6.758;2022-12-07T02:18:58;24.80;;;13.33;;
74900;SDS011;63461;51.416;6.758;2022-12-07T02:21:29;28.13;;;14.13;;
74900;SDS011;63461;51.416;6.758;2022-12-07T02:27:21;25.87;;;13.27;;
74900;SDS011;63461;51.416;6.758;2022-12-07T02:32:36;26.60;;;13.97;;
74900;SDS011;63461;51.416;6.758;2022-12-07T02:35:21;26.97;;;12.93;;
74900;SDS011;63461;51.416;6.758;2022-12-07T02:43:24;28.10;;;13.00;;
74900;SDS011;63461;51.416;6.758;2022-12-07T02:45:54;26.30;;;14.27;;
74900;SDS011;63461;51.416;6.758;2022-12-07T02:48:25;31.17;;;14.20;;
74900;SDS011;63461;51.416;6.758;2022-12-07T02:50:53;25.87;;;13.50;;
74900;SDS011;63461;51.416;6.758;2022-12-07T02:53:35;26.70;;;14.33;;
74900;SDS011;63461;51.416;6.758;2022-12-07T02:56:06;28.20;;;13.07;;
74900;SDS011;63461;51.416;6.758;2022-12-07T03:01:40;28.10;;;13.80;;
74900;SDS011;63461;51.416;6.758;2022-12-07T03:04:24;27.27;;;13.67;;
74900;SDS011;63461;51.416;6.758;2022-12-07T03:07:08;26.40;;;13.00;;
74900;SDS011;63461;51.416;6.758;2022-12-07T03:10:03;32.83;;;13.53;;
74900;SDS011;63461;51.416;6.758;2022-12-07T03:12:45;27.73;;;14.30;;
74900;SDS011;63461;51.416;6.758;2022-12-07T03:18:24;28.83;;;14.03;;
74900;SDS011;63461;51.416;6.758;2022-12-07T03:20:57;36.40;;;13.70;;
74900;SDS011;63461;51.416;6.758;2022-12-07T03:23:30;29.17;;;13.10;;
74900;SDS011;63461;51.416;6.758;2022-12-07T03:25:59;25.93;;;13.00;;
74900;SDS011;63461;51.416;6.758;2022-12-07T03:28:27;26.73;;;13.73;;
74900;SDS011;63461;51.416;6.758;2022-12-07T03:31:01;32.77;;;13.77;;
74900;SDS011;63461;51.416;6.758;2022-12-07T03:33:33;30.30;;;13.70;;
74900;SDS011;63461;51.416;6.758;2022-12-07T03:36:16;29.53;;;13.83;;
74900;SDS011;63461;51.416;6.758;2022-12-07T03:38:54;27.80;;;14.00;;
74900;SDS011;63461;51.416;6.758;2022-12-07T03:41:44;28.47;;;13.53;;
74900;SDS011;63461;51.416;6.758;2022-12-07T03:44:10;30.23;;;13.67;;
74900;SDS011;63461;51.416;6.758;2022-12-07T03:46:39;23.30;;;12.53;;
74900;SDS011;63461;51.416;6.758;2022-12-07T03:51:54;24.73;;;12.97;;
74900;SDS011;63461;51.416;6.758;2022-12-07T03:54:23;26.77;;;12.70;;
74900;SDS011;63461;51.416;6.758;2022-12-07T03:57:09;24.80;;;12.83;;
74900;SDS011;63461;51.416;6.758;2022-12-07T03:59:37;26.23;;;12.23;;
74900;SDS011;63461;51.416;6.758;2022-12-07T04:02:05;22.93;;;12.00;;
74900;SDS011;63461;51.416;6.758;2022-12-07T04:04:32;27.20;;;13.33;;
74900;SDS011;63461;51.416;6.758;2022-12-07T04:06:59;29.40;;;13.87;;
74900;SDS011;63461;51.416;6.758;2022-12-07T04:09:26;28.30;;;14.30;;
74900;SDS011;63461;51.416;6.758;2022-12-07T04:11:52;32.77;;;13.17;;
74900;SDS011;63461;51.416;6.758;2022-12-07T04:14:18;26.30;;;13.13;;
74900;SDS011;63461;51.416;6.758;2022-12-07T04:16:47;25.80;;;13.20;;
74900;SDS011;63461;51.416;6.758;2022-12-07T04:19:15;25.77;;;12.83;;
74900;SDS011;63461;51.416;6.758;2022-12-07T04:21:43;24.23;;;12.17;;
74900;SDS011;63461;51.416;6.758;2022-12-07T04:24:09;26.13;;;13.40;;
74900;SDS011;63461;51.416;6.758;2022-12-07T04:26:35;28.20;;;13.33;;
74900;SDS011;63461;51.416;6.758;2022-12-07T04:29:01;27.07;;;13.30;;
74900;SDS011;63461;51.416;6.758;2022-12-07T04:31:28;28.17;;;12.47;;
74900;SDS011;63461;51.416;6.758;2022-12-07T04:33:54;28.77;;;13.27;;
74900;SDS011;63461;51.416;6.758;2022-12-07T04:36:19;25.70;;;12.80;;
74900;SDS011;63461;51.416;6.758;2022-12-07T04:38:46;29.47;;;13.77;;
74900;SDS011;63461;51.416;6.758;2022-12-07T04:41:12;25.63;;;13.07;;
74900;SDS011;63461;51.416;6.758;2022-12-07T04:43:38;28.47;;;13.17;;
74900;SDS011;63461;51.416;6.758;2022-12-07T04:46:04;26.50;;;13.27;;
74900;SDS011;63461;51.416;6.758;2022-12-07T04:48:30;25.20;;;12.53;;
74900;SDS011;63461;51.416;6.758;2022-12-07T04:50:56;26.47;;;13.20;;
74900;SDS011;63461;51.416;6.758;2022-12-07T04:53:22;23.03;;;12.63;;
74900;SDS011;63461;51.416;6.758;2022-12-07T04:55:48;29.77;;;13.00;;
74900;SDS011;63461;51.416;6.758;2022-12-07T04:58:14;27.87;;;13.23;;
74900;SDS011;63461;51.416;6.758;2022-12-07T05:00:40;33.47;;;12.03;;
74900;SDS011;63461;51.416;6.758;2022-12-07T05:03:05;24.87;;;12.57;;
74900;SDS011;63461;51.416;6.758;2022-12-07T05:05:31;30.83;;;12.90;;
74900;SDS011;63461;51.416;6.758;2022-12-07T05:07:57;21.40;;;12.63;;
74900;SDS011;63461;51.416;6.758;2022-12-07T05:10:23;25.07;;;12.27;;
74900;SDS011;63461;51.416;6.758;2022-12-07T05:12:49;25.53;;;12.40;;
74900;SDS011;63461;51.416;6.758;2022-12-07T05:15:15;25.97;;;11.57;;
74900;SDS011;63461;51.416;6.758;2022-12-07T05:17:40;21.27;;;11.23;;
74900;SDS011;63461;51.416;6.758;2022-12-07T05:20:06;26.98;;;12.32;;
74900;SDS011;63461;51.416;6.758;2022-12-07T05:22:33;25.57;;;11.93;;
74900;SDS011;63461;51.416;6.758;2022-12-07T05:24:59;21.20;;;10.13;;
74900;SDS011;63461;51.416;6.758;2022-12-07T05:27:25;26.53;;;11.63;;
74900;SDS011;63461;51.416;6.758;2022-12-07T05:29:51;26.27;;;13.50;;
74900;SDS011;63461;51.416;6.758;2022-12-07T05:32:18;24.80;;;11.73;;
74900;SDS011;63461;51.416;6.758;2022-12-07T05:34:44;25.17;;;11.17;;
74900;SDS011;63461;51.416;6.758;2022-12-07T05:37:09;24.63;;;10.93;;
74900;SDS011;63461;51.416;6.758;2022-12-07T05:39:35;23.40;;;11.43;;
74900;SDS011;63461;51.416;6.758;2022-12-07T05:42:03;23.47;;;11.53;;
74900;SDS011;63461;51.416;6.758;2022-12-07T05:44:38;26.63;;;10.70;;
74900;SDS011;63461;51.416;6.758;2022-12-07T05:47:05;25.47;;;10.47;;
74900;SDS011;63461;51.416;6.758;2022-12-07T05:49:31;23.57;;;10.80;;
74900;SDS011;63461;51.416;6.758;2022-12-07T05:51:57;24.23;;;10.60;;
74900;SDS011;63461;51.416;6.758;2022-12-07T05:54:22;23.97;;;10.87;;
74900;SDS011;63461;51.416;6.758;2022-12-07T05:56:48;20.80;;;10.63;;
74900;SDS011;63461;51.416;6.758;2022-12-07T05:59:14;23.57;;;10.83;;
74900;SDS011;63461;51.416;6.758;2022-12-07T06:01:52;24.93;;;10.83;;
74900;SDS011;63461;51.416;6.758;2022-12-07T06:04:20;24.23;;;10.63;;
74900;SDS011;63461;51.416;6.758;2022-12-07T06:06:47;22.00;;;10.10;;
74900;SDS011;63461;51.416;6.758;2022-12-07T06:09:13;24.47;;;10.83;;
74900;SDS011;63461;51.416;6.758;2022-12-07T06:11:39;20.13;;;10.03;;
74900;SDS011;63461;51.416;6.758;2022-12-07T06:14:24;21.60;;;10.30;;
74900;SDS011;63461;51.416;6.758;2022-12-07T06:16:50;21.77;;;10.03;;
74900;SDS011;63461;51.416;6.758;2022-12-07T06:19:16;26.47;;;10.33;;
74900;SDS011;63461;51.416;6.758;2022-12-07T06:21:42;19.97;;;9.83;;
74900;SDS011;63461;51.416;6.758;2022-12-07T06:24:09;26.00;;;9.93;;
74900;SDS011;63461;51.416;6.758;2022-12-07T06:26:39;19.27;;;10.30;;
74900;SDS011;63461;51.416;6.758;2022-12-07T06:29:05;20.47;;;9.93;;
74900;SDS011;63461;51.416;6.758;2022-12-07T06:31:30;20.23;;;10.30;;
74900;SDS011;63461;51.416;6.758;2022-12-07T06:33:57;21.37;;;10.27;;
74900;SDS011;63461;51.416;6.758;2022-12-07T06:36:24;21.70;;;10.23;;
74900;SDS011;63461;51.416;6.758;2022-12-07T06:38:50;20.03;;;9.83;;
74900;SDS011;63461;51.416;6.758;2022-12-07T06:41:15;23.97;;;10.20;;
74900;SDS011;63461;51.416;6.758;2022-12-07T06:43:41;21.57;;;9.93;;
74900;SDS011;63461;51.416;6.758;2022-12-07T06:46:07;19.30;;;10.30;;
74900;SDS011;63461;51.416;6.758;2022-12-07T06:48:33;22.67;;;10.50;;
74900;SDS011;63461;51.416;6.758;2022-12-07T06:50:58;24.13;;;10.50;;
74900;SDS011;63461;51.416;6.758;2022-12-07T06:53:27;19.63;;;9.70;;
74900;SDS011;63461;51.416;6.758;2022-12-07T06:55:53;20.70;;;9.93;;
74900;SDS011;63461;51.416;6.758;2022-12-07T06:58:18;22.20;;;10.23;;
74900;SDS011;63461;51.416;6.758;2022-12-07T07:00:44;21.70;;;10.30;;
74900;SDS011;63461;51.416;6.758;2022-12-07T07:03:10;19.57;;;10.23;;
74900;SDS011;63461;51.416;6.758;2022-12-07T07:05:36;23.43;;;11.00;;
74900;SDS011;63461;51.416;6.758;2022-12-07T07:08:02;19.03;;;9.93;;
74900;SDS011;63461;51.416;6.758;2022-12-07T07:10:28;21.97;;;10.03;;
74900;SDS011;63461;51.416;6.758;2022-12-07T07:12:53;20.73;;;9.60;;
74900;SDS011;63461;51.416;6.758;2022-12-07T07:15:19;24.50;;;10.53;;
74900;SDS011;63461;51.416;6.758;2022-12-07T07:17:45;25.73;;;10.53;;
74900;SDS011;63461;51.416;6.758;2022-12-07T07:20:11;19.97;;;10.33;;
74900;SDS011;63461;51.416;6.758;2022-12-07T07:22:37;18.57;;;10.00;;
74900;SDS011;63461;51.416;6.758;2022-12-07T07:25:03;20.80;;;9.77;;
74900;SDS011;63461;51.416;6.758;2022-12-07T07:27:29;23.93;;;11.07;;
74900;SDS011;63461;51.416;6.758;2022-12-07T07:29:55;20.87;;;10.10;;
74900;SDS011;63461;51.416;6.758;2022-12-07T07:32:20;22.20;;;9.97;;
74900;SDS011;63461;51.416;6.758;2022-12-07T07:34:47;25.87;;;10.37;;
74900;SDS011;63461;51.416;6.758;2022-12-07T07:37:13;21.70;;;10.00;;
74900;SDS011;63461;51.416;6.758;2022-12-07T07:39:39;20.27;;;10.40;;
74900;SDS011;63461;51.416;6.758;2022-12-07T07:42:06;20.03;;;9.33;;
74900;SDS011;63461;51.416;6.758;2022-12-07T07:44:33;25.80;;;10.87;;
74900;SDS011;63461;51.416;6.758;2022-12-07T07:46:59;20.07;;;9.90;;
74900;SDS011;63461;51.416;6.758;2022-12-07T07:49:25;23.17;;;10.43;;
74900;SDS011;63461;51.416;6.758;2022-12-07T07:51:52;21.20;;;9.87;;
74900;SDS011;63461;51.416;6.758;2022-12-07T07:54:17;21.30;;;9.60;;
74900;SDS011;63461;51.416;6.758;2022-12-07T07:56:43;24.53;;;9.60;;
74900;SDS011;63461;51.416;6.758;2022-12-07T07:59:09;27.33;;;10.00;;
74900;SDS011;63461;51.416;6.758;2022-12-07T08:01:34;21.10;;;9.60;;
74900;SDS011;63461;51.416;6.758;2022-12-07T08:04:00;21.17;;;10.13;;
74900;SDS011;63461;51.416;6.758;2022-12-07T08:06:26;19.50;;;8.33;;
74900;SDS011;63461;51.416;6.758;2022-12-07T08:08:52;19.57;;;8.93;;
74900;SDS011;63461;51.416;6.758;2022-12-07T08:11:18;21.00;;;9.73;;
74900;SDS011;63461;51.416;6.758;2022-12-07T08:13:47;23.50;;;9.17;;
74900;SDS011;63461;51.416;6.758;2022-12-07T08:16:12;22.53;;;9.83;;
74900;SDS011;63461;51.416;6.758;2022-12-07T08:18:40;22.00;;;9.87;;
74900;SDS011;63461;51.416;6.758;2022-12-07T08:21:07;20.20;;;9.30;;
74900;SDS011;63461;51.416;6.758;2022-12-07T08:23:34;23.03;;;9.30;;
74900;SDS011;63461;51.416;6.758;2022-12-07T08:26:01;20.07;;;8.83;;
74900;SDS011;63461;51.416;6.758;2022-12-07T08:28:31;17.70;;;8.57;;
74900;SDS011;63461;51.416;6.758;2022-12-07T08:31:01;18.50;;;8.40;;
74900;SDS011;63461;51.416;6.758;2022-12-07T08:33:31;21.00;;;8.43;;
74900;SDS011;63461;51.416;6.758;2022-12-07T08:36:00;17.80;;;8.40;;
74900;SDS011;63461;51.416;6.758;2022-12-07T08:38:27;20.23;;;8.80;;
74900;SDS011;63461;51.416;6.758;2022-12-07T08:40:56;21.33;;;8.53;;
74900;SDS011;63461;51.416;6.758;2022-12-07T08:43:23;17.77;;;7.67;;
74900;SDS011;63461;51.416;6.758;2022-12-07T08:45:55;14.77;;;7.50;;
74900;SDS011;63461;51.416;6.758;2022-12-07T08:51:23;18.80;;;7.33;;
74900;SDS011;63461;51.416;6.758;2022-12-07T08:53:50;16.13;;;7.60;;
74900;SDS011;63461;51.416;6.758;2022-12-07T08:56:17;16.00;;;7.63;;
74900;SDS011;63461;51.416;6.758;2022-12-07T08:58:43;18.93;;;7.40;;
74900;SDS011;63461;51.416;6.758;2022-12-07T09:01:09;16.00;;;6.97;;
74900;SDS011;63461;51.416;6.758;2022-12-07T09:03:35;16.80;;;6.93;;
74900;SDS011;63461;51.416;6.758;2022-12-07T09:06:01;20.63;;;9.10;;
74900;SDS011;63461;51.416;6.758;2022-12-07T09:08:31;14.77;;;7.10;;
74900;SDS011;63461;51.416;6.758;2022-12-07T09:11:01;13.70;;;6.43;;
74900;SDS011;63461;51.416;6.758;2022-12-07T09:13:27;16.13;;;7.57;;
74900;SDS011;63461;51.416;6.758;2022-12-07T09:15:53;14.77;;;6.83;;
74900;SDS011;63461;51.416;6.758;2022-12-07T09:18:19;13.43;;;6.73;;
74900;SDS011;63461;51.416;6.758;2022-12-07T09:20:44;17.47;;;7.13;;
74900;SDS011;63461;51.416;6.758;2022-12-07T09:23:10;12.63;;;6.70;;
74900;SDS011;63461;51.416;6.758;2022-12-07T09:25:36;14.33;;;6.37;;
74900;SDS011;63461;51.416;6.758;2022-12-07T09:28:02;15.47;;;6.87;;
74900;SDS011;63461;51.416;6.758;2022-12-07T09:30:27;19.10;;;7.87;;
74900;SDS011;63461;51.416;6.758;2022-12-07T09:32:54;13.47;;;7.20;;
74900;SDS011;63461;51.416;6.758;2022-12-07T09:35:21;13.37;;;5.70;;
74900;SDS011;63461;51.416;6.758;2022-12-07T09:37:47;14.10;;;7.63;;
74900;SDS011;63461;51.416;6.758;2022-12-07T09:40:14;12.73;;;5.90;;
74900;SDS011;63461;51.416;6.758;2022-12-07T09:42:43;17.63;;;6.67;;
74900;SDS011;63461;51.416;6.758;2022-12-07T09:45:18;12.97;;;6.50;;
74900;SDS011;63461;51.416;6.758;2022-12-07T09:47:47;13.17;;;6.50;;
74900;SDS011;63461;51.416;6.758;2022-12-07T09:50:17;17.93;;;7.13;;
74900;SDS011;63461;51.416;6.758;2022-12-07T09:52:46;12.20;;;6.37;;
74900;SDS011;63461;51.416;6.758;2022-12-07T09:55:14;13.67;;;6.37;;
74900;SDS011;63461;51.416;6.758;2022-12-07T09:57:44;14.87;;;6.30;;
74900;SDS011;63461;51.416;6.758;2022-12-07T10:00:18;13.93;;;6.80;;
74900;SDS011;63461;51.416;6.758;2022-12-07T10:02:48;16.43;;;5.77;;
74900;SDS011;63461;51.416;6.758;2022-12-07T10:05:27;12.70;;;5.87;;
74900;SDS011;63461;51.416;6.758;2022-12-07T10:08:12;12.17;;;5.90;;
74900;SDS011;63461;51.416;6.758;2022-12-07T10:10:38;16.93;;;6.57;;
74900;SDS011;63461;51.416;6.758;2022-12-07T10:13:06;17.13;;;6.67;;
74900;SDS011;63461;51.416;6.758;2022-12-07T10:18:21;13.37;;;6.20;;
74900;SDS011;63461;51.416;6.758;2022-12-07T10:20:59;13.00;;;5.63;;
74900;SDS011;63461;51.416;6.758;2022-12-07T10:23:28;15.63;;;6.03;;
74900;SDS011;63461;51.416;6.758;2022-12-07T10:25:54;13.00;;;5.60;;
74900;SDS011;63461;51.416;6.758;2022-12-07T10:28:20;14.07;;;5.50;;
74900;SDS011;63461;51.416;6.758;2022-12-07T10:30:47;13.27;;;4.87;;
74900;SDS011;63461;51.416;6.758;2022-12-07T10:35:53;21.30;;;5.53;;
74900;SDS011;63461;51.416;6.758;2022-12-07T10:38:19;13.47;;;4.87;;
74900;SDS011;63461;51.416;6.758;2022-12-07T10:40:45;13.57;;;4.27;;
74900;SDS011;63461;51.416;6.758;2022-12-07T10:48:27;11.47;;;3.50;;
74900;SDS011;63461;51.416;6.758;2022-12-07T10:54:09;12.17;;;3.83;;
74900;SDS011;63461;51.416;6.758;2022-12-07T10:59:24;8.97;;;4.30;;
74900;SDS011;63461;51.416;6.758;2022-12-07T11:02:06;11.07;;;4.03;;
74900;SDS011;63461;51.416;6.758;2022-12-07T11:04:45;11.63;;;4.40;;
74900;SDS011;63461;51.416;6.758;2022-12-07T11:07:29;16.30;;;4.13;;
74900;SDS011;63461;51.416;6.758;2022-12-07T11:13:43;11.30;;;3.60;;
74900;SDS011;63461;51.416;6.758;2022-12-07T11:15:55;8.90;;;3.50;;
74900;SDS011;63461;51.416;6.758;2022-12-07T11:24:36;5.23;;;2.70;;
74900;SDS011;63461;51.416;6.758;2022-12-07T11:33:01;8.80;;;3.27;;
74900;SDS011;63461;51.416;6.758;2022-12-07T11:38:42;14.97;;;3.03;;
74900;SDS011;63461;51.416;6.758;2022-12-07T11:41:20;10.43;;;3.27;;
74900;SDS011;63461;51.416;6.758;2022-12-07T11:43:59;9.57;;;2.83;;
74900;SDS011;63461;51.416;6.758;2022-12-07T11:47:02;8.03;;;3.00;;
74900;SDS011;63461;51.416;6.758;2022-12-07T11:50:13;11.40;;;2.77;;
74900;SDS011;63461;51.416;6.758;2022-12-07T11:52:43;7.60;;;2.93;;
74900;SDS011;63461;51.416;6.758;2022-12-07T11:55:32;8.00;;;2.83;;
74900;SDS011;63461;51.416;6.758;2022-12-07T11:58:56;9.20;;;3.27;;
74900;SDS011;63461;51.416;6.758;2022-12-07T12:03:46;10.53;;;3.20;;
74900;SDS011;63461;51.416;6.758;2022-12-07T12:06:15;7.00;;;2.47;;
74900;SDS011;63461;51.416;6.758;2022-12-07T12:08:42;11.60;;;3.10;;
74900;SDS011;63461;51.416;6.758;2022-12-07T12:24:43;4.73;;;2.20;;
74900;SDS011;63461;51.416;6.758;2022-12-07T12:27:21;9.03;;;3.13;;
74900;SDS011;63461;51.416;6.758;2022-12-07T12:29:55;8.17;;;2.83;;
74900;SDS011;63461;51.416;6.758;2022-12-07T12:32:29;6.40;;;3.00;;
74900;SDS011;63461;51.416;6.758;2022-12-07T12:37:52;9.27;;;2.97;;
74900;SDS011;63461;51.416;6.758;2022-12-07T12:42:50;10.13;;;2.70;;
74900;SDS011;63461;51.416;6.758;2022-12-07T12:45:19;6.43;;;2.87;;
74900;SDS011;63461;51.416;6.758;2022-12-07T12:48:00;15.23;;;3.00;;
74900;SDS011;63461;51.416;6.758;2022-12-07T12:50:36;8.17;;;2.20;;
74900;SDS011;63461;51.416;6.758;2022-12-07T13:00:49;10.93;;;2.10;;
74900;SDS011;63461;51.416;6.758;2022-12-07T13:03:52;7.23;;;2.87;;
74900;SDS011;63461;51.416;6.758;2022-12-07T13:06:31;8.23;;;1.83;;
74900;SDS011;63461;51.416;6.758;2022-12-07T13:09:00;5.93;;;2.07;;
74900;SDS011;63461;51.416;6.758;2022-12-07T13:11:37;7.73;;;2.30;;
74900;SDS011;63461;51.416;6.758;2022-12-07T13:20:01;7.03;;;2.70;;
74900;SDS011;63461;51.416;6.758;2022-12-07T13:25:11;7.27;;;2.70;;
74900;SDS011;63461;51.416;6.758;2022-12-07T13:27:51;7.37;;;3.10;;
74900;SDS011;63461;51.416;6.758;2022-12-07T13:30:26;7.77;;;3.07;;
74900;SDS011;63461;51.416;6.758;2022-12-07T13:32:54;9.27;;;2.83;;
74900;SDS011;63461;51.416;6.758;2022-12-07T13:38:20;9.77;;;2.63;;
74900;SDS011;63461;51.416;6.758;2022-12-07T13:41:05;9.83;;;2.90;;
74900;SDS011;63461;51.416;6.758;2022-12-07T13:43:42;10.90;;;3.73;;
74900;SDS011;63461;51.416;6.758;2022-12-07T13:46:35;10.10;;;2.97;;
74900;SDS011;63461;51.416;6.758;2022-12-07T13:49:16;9.17;;;2.83;;
74900;SDS011;63461;51.416;6.758;2022-12-07T13:51:45;7.27;;;2.83;;
74900;SDS011;63461;51.416;6.758;2022-12-07T13:54:11;8.70;;;2.70;;
74900;SDS011;63461;51.416;6.758;2022-12-07T13:56:38;7.47;;;2.70;;
74900;SDS011;63461;51.416;6.758;2022-12-07T13:59:21;6.10;;;2.40;;
74900;SDS011;63461;51.416;6.758;2022-12-07T14:01:49;5.40;;;2.00;;
74900;SDS011;63461;51.416;6.758;2022-12-07T14:04:32;8.00;;;2.10;;
74900;SDS011;63461;51.416;6.758;2022-12-07T14:07:00;8.03;;;2.03;;
74900;SDS011;63461;51.416;6.758;2022-12-07T14:09:52;6.17;;;2.40;;
74900;SDS011;63461;51.416;6.758;2022-12-07T14:12:23;10.23;;;2.43;;
74900;SDS011;63461;51.416;6.758;2022-12-07T14:14:50;5.23;;;2.10;;
74900;SDS011;63461;51.416;6.758;2022-12-07T14:17:21;6.90;;;2.00;;
74900;SDS011;63461;51.416;6.758;2022-12-07T14:19:55;6.43;;;2.17;;
74900;SDS011;63461;51.416;6.758;2022-12-07T14:22:26;8.37;;;1.80;;
74900;SDS011;63461;51.416;6.758;2022-12-07T14:24:58;5.83;;;2.23;;
74900;SDS011;63461;51.416;6.758;2022-12-07T14:27:29;9.63;;;3.23;;
74900;SDS011;63461;51.416;6.758;2022-12-07T14:29:59;8.73;;;2.37;;
74900;SDS011;63461;51.416;6.758;2022-12-07T14:32:27;12.33;;;2.83;;
74900;SDS011;63461;51.416;6.758;2022-12-07T14:34:58;7.67;;;1.93;;
74900;SDS011;63461;51.416;6.758;2022-12-07T14:37:35;8.80;;;2.10;;
74900;SDS011;63461;51.416;6.758;2022-12-07T14:40:02;7.87;;;2.40;;
74900;SDS011;63461;51.416;6.758;2022-12-07T14:42:29;8.77;;;2.17;;
74900;SDS011;63461;51.416;6.758;2022-12-07T14:44:56;11.80;;;2.40;;
74900;SDS011;63461;51.416;6.758;2022-12-07T14:47:23;8.50;;;2.13;;
74900;SDS011;63461;51.416;6.758;2022-12-07T14:49:50;7.13;;;1.90;;
74900;SDS011;63461;51.416;6.758;2022-12-07T14:52:17;6.67;;;2.10;;
74900;SDS011;63461;51.416;6.758;2022-12-07T14:54:53;6.77;;;2.10;;
74900;SDS011;63461;51.416;6.758;2022-12-07T14:57:19;16.67;;;2.30;;
74900;SDS011;63461;51.416;6.758;2022-12-07T14:59:45;8.60;;;2.07;;
74900;SDS011;63461;51.416;6.758;2022-12-07T15:02:11;9.23;;;2.40;;
74900;SDS011;63461;51.416;6.758;2022-12-07T15:04:38;10.07;;;2.67;;
74900;SDS011;63461;51.416;6.758;2022-12-07T15:07:05;11.67;;;2.90;;
74900;SDS011;63461;51.416;6.758;2022-12-07T15:09:35;8.57;;;3.50;;
74900;SDS011;63461;51.416;6.758;2022-12-07T15:12:01;9.63;;;3.63;;
74900;SDS011;63461;51.416;6.758;2022-12-07T15:14:27;11.43;;;3.73;;
74900;SDS011;63461;51.416;6.758;2022-12-07T15:16:53;16.40;;;4.23;;
74900;SDS011;63461;51.416;6.758;2022-12-07T15:19:20;9.40;;;3.37;;
74900;SDS011;63461;51.416;6.758;2022-12-07T15:21:51;18.03;;;3.63;;
74900;SDS011;63461;51.416;6.758;2022-12-07T15:24:17;12.53;;;3.63;;
74900;SDS011;63461;51.416;6.758;2022-12-07T15:26:43;11.00;;;3.90;;
74900;SDS011;63461;51.416;6.758;2022-12-07T15:29:10;8.37;;;3.67;;
74900;SDS011;63461;51.416;6.758;2022-12-07T15:31:36;13.97;;;3.97;;
74900;SDS011;63461;51.416;6.758;2022-12-07T15:34:03;9.63;;;3.83;;
74900;SDS011;63461;51.416;6.758;2022-12-07T15:36:30;11.57;;;4.03;;
74900;SDS011;63461;51.416;6.758;2022-12-07T15:38:57;9.30;;;4.03;;
74900;SDS011;63461;51.416;6.758;2022-12-07T15:41:22;11.57;;;4.00;;
74900;SDS011;63461;51.416;6.758;2022-12-07T15:43:48;12.83;;;4.30;;
74900;SDS011;63461;51.416;6.758;2022-12-07T15:46:37;10.27;;;4.30;;
74900;SDS011;63461;51.416;6.758;2022-12-07T15:49:09;13.93;;;3.87;;
74900;SDS011;63461;51.416;6.758;2022-12-07T15:51:40;9.37;;;4.40;;
74900;SDS011;63461;51.416;6.758;2022-12-07T15:54:07;8.93;;;3.90;;
74900;SDS011;63461;51.416;6.758;2022-12-07T15:56:36;15.50;;;4.10;;
74900;SDS011;63461;51.416;6.758;2022-12-07T15:59:02;8.90;;;3.77;;
74900;SDS011;63461;51.416;6.758;2022-12-07T16:01:28;16.23;;;3.53;;
74900;SDS011;63461;51.416;6.758;2022-12-07T16:03:53;13.97;;;3.93;;
74900;SDS011;63461;51.416;6.758;2022-12-07T16:06:21;11.23;;;4.10;;
74900;SDS011;63461;51.416;6.758;2022-12-07T16:08:47;8.03;;;3.80;;
74900;SDS011;63461;51.416;6.758;2022-12-07T16:11:14;12.67;;;3.40;;
74900;SDS011;63461;51.416;6.758;2022-12-07T16:13:39;6.77;;;3.00;;
74900;SDS011;63461;51.416;6.758;2022-12-07T16:16:06;6.07;;;3.03;;
74900;SDS011;63461;51.416;6.758;2022-12-07T16:18:36;11.80;;;3.37;;
74900;SDS011;63461;51.416;6.758;2022-12-07T16:21:02;6.80;;;2.90;;
74900;SDS011;63461;51.416;6.758;2022-12-07T16:23:28;6.67;;;2.53;;
74900;SDS011;63461;51.416;6.758;2022-12-07T16:25:54;10.17;;;2.63;;